sensor_id;sensor_type;location;lat;lon;timestamp;P1;durP1;ratioP1;P2;durP2;ratioP2
84286;SDS011;74445;55.252;61.092;2023-12-22T00:00:55;5.10;;;2.40;;
84286;SDS011;74445;55.252;61.092;2023-12-22T00:03:22;4.22;;;2.40;;
84286;SDS011;74445;55.252;61.092;2023-12-22T00:05:49;4.10;;;2.10;;
84286;SDS011;74445;55.252;61.092;2023-12-22T00:08:16;6.43;;;2.42;;
84286;SDS011;74445;55.252;61.092;2023-12-22T00:10:44;3.45;;;1.88;;
84286;SDS011;74445;55.252;61.092;2023-12-22T00:13:11;5.22;;;2.28;;
84286;SDS011;74445;55.252;61.092;2023-12-22T00:15:38;5.25;;;2.10;;
84286;SDS011;74445;55.252;61.092;2023-12-22T00:18:06;4.10;;;2.25;;
84286;SDS011;74445;55.252;61.092;2023-12-22T00:20:33;4.85;;;2.42;;
84286;SDS011;74445;55.252;61.092;2023-12-22T00:23:00;5.93;;;2.20;;
84286;SDS011;74445;55.252;61.092;2023-12-22T00:25:26;3.35;;;1.90;;
84286;SDS011;74445;55.252;61.092;2023-12-22T00:27:55;6.35;;;2.28;;
84286;SDS011;74445;55.252;61.092;2023-12-22T00:30:22;4.00;;;2.10;;
84286;SDS011;74445;55.252;61.092;2023-12-22T00:32:50;3.80;;;2.05;;
84286;SDS011;74445;55.252;61.092;2023-12-22T00:35:18;4.22;;;2.00;;
84286;SDS011;74445;55.252;61.092;2023-12-22T00:37:44;3.17;;;1.67;;
84286;SDS011;74445;55.252;61.092;2023-12-22T00:40:12;3.63;;;1.88;;
84286;SDS011;74445;55.252;61.092;2023-12-22T00:42:41;4.35;;;2.10;;
84286;SDS011;74445;55.252;61.092;2023-12-22T00:45:09;5.93;;;2.13;;
84286;SDS011;74445;55.252;61.092;2023-12-22T00:47:37;3.67;;;1.75;;
84286;SDS011;74445;55.252;61.092;2023-12-22T00:50:04;3.65;;;1.77;;
84286;SDS011;74445;55.252;61.092;2023-12-22T00:52:32;3.22;;;1.75;;
84286;SDS011;74445;55.252;61.092;2023-12-22T00:54:59;2.28;;;1.40;;
84286;SDS011;74445;55.252;61.092;2023-12-22T00:57:26;3.40;;;1.73;;
84286;SDS011;74445;55.252;61.092;2023-12-22T00:59:53;3.03;;;1.67;;
84286;SDS011;74445;55.252;61.092;2023-12-22T01:02:22;4.53;;;1.30;;
84286;SDS011;74445;55.252;61.092;2023-12-22T01:04:50;6.25;;;1.88;;
84286;SDS011;74445;55.252;61.092;2023-12-22T01:07:16;3.10;;;1.60;;
84286;SDS011;74445;55.252;61.092;2023-12-22T01:09:44;2.17;;;1.33;;
84286;SDS011;74445;55.252;61.092;2023-12-22T01:12:10;0.98;;;0.68;;
84286;SDS011;74445;55.252;61.092;2023-12-22T01:14:37;2.95;;;1.45;;
84286;SDS011;74445;55.252;61.092;2023-12-22T01:17:03;4.38;;;1.60;;
84286;SDS011;74445;55.252;61.092;2023-12-22T01:19:31;1.90;;;1.30;;
84286;SDS011;74445;55.252;61.092;2023-12-22T01:21:58;2.05;;;1.50;;
84286;SDS011;74445;55.252;61.092;2023-12-22T01:24:24;3.03;;;1.67;;
84286;SDS011;74445;55.252;61.092;2023-12-22T01:26:51;1.88;;;1.40;;
84286;SDS011;74445;55.252;61.092;2023-12-22T01:29:17;1.55;;;1.17;;
84286;SDS011;74445;55.252;61.092;2023-12-22T01:31:43;2.25;;;1.33;;
84286;SDS011;74445;55.252;61.092;2023-12-22T01:34:10;1.23;;;1.08;;
84286;SDS011;74445;55.252;61.092;2023-12-22T01:36:38;4.53;;;1.50;;
84286;SDS011;74445;55.252;61.092;2023-12-22T01:39:05;3.42;;;1.15;;
84286;SDS011;74445;55.252;61.092;2023-12-22T01:41:31;5.40;;;1.75;;
84286;SDS011;74445;55.252;61.092;2023-12-22T01:43:57;2.42;;;1.67;;
84286;SDS011;74445;55.252;61.092;2023-12-22T01:46:24;3.13;;;1.50;;
84286;SDS011;74445;55.252;61.092;2023-12-22T01:48:51;2.30;;;1.38;;
84286;SDS011;74445;55.252;61.092;2023-12-22T01:51:17;2.17;;;1.40;;
84286;SDS011;74445;55.252;61.092;2023-12-22T01:53:46;1.73;;;1.30;;
84286;SDS011;74445;55.252;61.092;2023-12-22T01:56:13;3.63;;;1.42;;
84286;SDS011;74445;55.252;61.092;2023-12-22T01:58:39;1.30;;;0.90;;
84286;SDS011;74445;55.252;61.092;2023-12-22T02:01:06;2.15;;;1.42;;
84286;SDS011;74445;55.252;61.092;2023-12-22T02:03:33;2.90;;;1.48;;
84286;SDS011;74445;55.252;61.092;2023-12-22T02:05:59;3.15;;;1.45;;
84286;SDS011;74445;55.252;61.092;2023-12-22T02:08:27;1.70;;;1.40;;
84286;SDS011;74445;55.252;61.092;2023-12-22T02:10:58;1.80;;;1.23;;
84286;SDS011;74445;55.252;61.092;2023-12-22T02:13:25;2.20;;;1.30;;
84286;SDS011;74445;55.252;61.092;2023-12-22T02:15:53;1.58;;;0.95;;
84286;SDS011;74445;55.252;61.092;2023-12-22T02:18:27;5.28;;;1.67;;
84286;SDS011;74445;55.252;61.092;2023-12-22T02:21:01;1.60;;;1.15;;
84286;SDS011;74445;55.252;61.092;2023-12-22T02:23:29;3.38;;;1.30;;
84286;SDS011;74445;55.252;61.092;2023-12-22T02:25:57;1.83;;;1.30;;
84286;SDS011;74445;55.252;61.092;2023-12-22T02:28:33;2.45;;;0.95;;
84286;SDS011;74445;55.252;61.092;2023-12-22T02:31:09;1.95;;;1.20;;
84286;SDS011;74445;55.252;61.092;2023-12-22T02:33:42;1.20;;;1.10;;
84286;SDS011;74445;55.252;61.092;2023-12-22T02:36:09;2.45;;;1.20;;
84286;SDS011;74445;55.252;61.092;2023-12-22T02:38:40;1.23;;;1.13;;
84286;SDS011;74445;55.252;61.092;2023-12-22T02:41:08;1.70;;;1.33;;
84286;SDS011;74445;55.252;61.092;2023-12-22T02:43:35;0.85;;;0.85;;
84286;SDS011;74445;55.252;61.092;2023-12-22T02:46:02;2.85;;;0.98;;
84286;SDS011;74445;55.252;61.092;2023-12-22T02:48:28;1.73;;;1.30;;
84286;SDS011;74445;55.252;61.092;2023-12-22T02:50:55;1.52;;;1.20;;
84286;SDS011;74445;55.252;61.092;2023-12-22T02:53:21;3.75;;;1.55;;
84286;SDS011;74445;55.252;61.092;2023-12-22T02:55:49;2.17;;;1.50;;
84286;SDS011;74445;55.252;61.092;2023-12-22T02:58:16;6.03;;;1.60;;
84286;SDS011;74445;55.252;61.092;2023-12-22T03:00:42;3.42;;;1.60;;
84286;SDS011;74445;55.252;61.092;2023-12-22T03:03:09;1.60;;;1.40;;
84286;SDS011;74445;55.252;61.092;2023-12-22T03:05:36;2.75;;;1.45;;
84286;SDS011;74445;55.252;61.092;2023-12-22T03:08:02;2.50;;;1.40;;
84286;SDS011;74445;55.252;61.092;2023-12-22T03:10:29;2.20;;;1.38;;
84286;SDS011;74445;55.252;61.092;2023-12-22T03:12:57;1.95;;;1.00;;
84286;SDS011;74445;55.252;61.092;2023-12-22T03:15:24;1.77;;;1.23;;
84286;SDS011;74445;55.252;61.092;2023-12-22T03:17:51;3.55;;;1.40;;
84286;SDS011;74445;55.252;61.092;2023-12-22T03:20:18;2.35;;;1.45;;
84286;SDS011;74445;55.252;61.092;2023-12-22T03:22:44;2.75;;;1.45;;
84286;SDS011;74445;55.252;61.092;2023-12-22T03:25:11;1.75;;;1.27;;
84286;SDS011;74445;55.252;61.092;2023-12-22T03:27:37;1.83;;;1.20;;
84286;SDS011;74445;55.252;61.092;2023-12-22T03:30:06;4.18;;;0.98;;
84286;SDS011;74445;55.252;61.092;2023-12-22T03:32:33;3.00;;;1.55;;
84286;SDS011;74445;55.252;61.092;2023-12-22T03:35:00;1.88;;;1.30;;
84286;SDS011;74445;55.252;61.092;2023-12-22T03:37:27;2.33;;;1.40;;
84286;SDS011;74445;55.252;61.092;2023-12-22T03:39:53;3.45;;;1.63;;
84286;SDS011;74445;55.252;61.092;2023-12-22T03:42:20;2.92;;;1.27;;
84286;SDS011;74445;55.252;61.092;2023-12-22T03:44:46;1.50;;;1.40;;
84286;SDS011;74445;55.252;61.092;2023-12-22T03:47:16;1.58;;;1.00;;
84286;SDS011;74445;55.252;61.092;2023-12-22T03:49:44;1.23;;;0.80;;
84286;SDS011;74445;55.252;61.092;2023-12-22T03:52:13;1.88;;;1.20;;
84286;SDS011;74445;55.252;61.092;2023-12-22T03:54:43;2.22;;;1.40;;
84286;SDS011;74445;55.252;61.092;2023-12-22T03:57:11;1.77;;;1.13;;
84286;SDS011;74445;55.252;61.092;2023-12-22T03:59:41;3.38;;;1.10;;
84286;SDS011;74445;55.252;61.092;2023-12-22T04:02:10;1.65;;;0.77;;
84286;SDS011;74445;55.252;61.092;2023-12-22T04:04:38;1.48;;;0.90;;
84286;SDS011;74445;55.252;61.092;2023-12-22T04:07:06;1.70;;;1.10;;
84286;SDS011;74445;55.252;61.092;2023-12-22T04:09:32;1.77;;;1.17;;
84286;SDS011;74445;55.252;61.092;2023-12-22T04:11:59;2.38;;;1.20;;
84286;SDS011;74445;55.252;61.092;2023-12-22T04:14:26;1.58;;;1.27;;
84286;SDS011;74445;55.252;61.092;2023-12-22T04:16:52;2.67;;;1.20;;
84286;SDS011;74445;55.252;61.092;2023-12-22T04:19:19;2.10;;;1.23;;
84286;SDS011;74445;55.252;61.092;2023-12-22T04:21:48;2.35;;;1.50;;
84286;SDS011;74445;55.252;61.092;2023-12-22T04:24:14;2.35;;;1.23;;
84286;SDS011;74445;55.252;61.092;2023-12-22T04:26:41;2.22;;;1.52;;
84286;SDS011;74445;55.252;61.092;2023-12-22T04:29:08;2.50;;;1.60;;
84286;SDS011;74445;55.252;61.092;2023-12-22T04:31:35;1.75;;;1.33;;
84286;SDS011;74445;55.252;61.092;2023-12-22T04:34:02;2.88;;;1.35;;
84286;SDS011;74445;55.252;61.092;2023-12-22T04:36:29;2.22;;;1.10;;
84286;SDS011;74445;55.252;61.092;2023-12-22T04:38:58;1.40;;;0.75;;
84286;SDS011;74445;55.252;61.092;2023-12-22T04:41:25;2.05;;;1.30;;
84286;SDS011;74445;55.252;61.092;2023-12-22T04:43:53;1.10;;;1.00;;
84286;SDS011;74445;55.252;61.092;2023-12-22T04:46:21;4.18;;;1.08;;
84286;SDS011;74445;55.252;61.092;2023-12-22T04:48:47;5.13;;;1.40;;
84286;SDS011;74445;55.252;61.092;2023-12-22T04:51:15;2.85;;;1.58;;
84286;SDS011;74445;55.252;61.092;2023-12-22T04:53:42;3.05;;;1.63;;
84286;SDS011;74445;55.252;61.092;2023-12-22T04:56:14;2.50;;;1.70;;
84286;SDS011;74445;55.252;61.092;2023-12-22T04:58:45;4.63;;;1.48;;
84286;SDS011;74445;55.252;61.092;2023-12-22T05:01:13;4.78;;;1.83;;
84286;SDS011;74445;55.252;61.092;2023-12-22T05:03:41;1.73;;;1.15;;
84286;SDS011;74445;55.252;61.092;2023-12-22T05:06:09;4.32;;;1.55;;
84286;SDS011;74445;55.252;61.092;2023-12-22T05:08:37;3.50;;;1.67;;
84286;SDS011;74445;55.252;61.092;2023-12-22T05:11:06;1.95;;;1.33;;
84286;SDS011;74445;55.252;61.092;2023-12-22T05:13:37;2.72;;;1.55;;
84286;SDS011;74445;55.252;61.092;2023-12-22T05:16:05;1.70;;;1.25;;
84286;SDS011;74445;55.252;61.092;2023-12-22T05:18:33;3.00;;;1.55;;
84286;SDS011;74445;55.252;61.092;2023-12-22T05:21:02;2.45;;;1.25;;
84286;SDS011;74445;55.252;61.092;2023-12-22T05:23:31;3.13;;;1.60;;
84286;SDS011;74445;55.252;61.092;2023-12-22T05:25:59;2.28;;;1.73;;
84286;SDS011;74445;55.252;61.092;2023-12-22T05:28:28;1.83;;;1.42;;
84286;SDS011;74445;55.252;61.092;2023-12-22T05:30:58;1.58;;;1.10;;
84286;SDS011;74445;55.252;61.092;2023-12-22T05:33:28;2.75;;;1.80;;
84286;SDS011;74445;55.252;61.092;2023-12-22T05:35:56;4.00;;;1.80;;
84286;SDS011;74445;55.252;61.092;2023-12-22T05:38:24;3.17;;;1.73;;
84286;SDS011;74445;55.252;61.092;2023-12-22T05:40:51;2.50;;;1.60;;
84286;SDS011;74445;55.252;61.092;2023-12-22T05:43:19;2.60;;;1.75;;
84286;SDS011;74445;55.252;61.092;2023-12-22T05:45:48;3.60;;;1.85;;
84286;SDS011;74445;55.252;61.092;2023-12-22T05:48:17;1.50;;;1.38;;
84286;SDS011;74445;55.252;61.092;2023-12-22T05:50:49;4.03;;;1.58;;
84286;SDS011;74445;55.252;61.092;2023-12-22T05:53:17;3.22;;;1.80;;
84286;SDS011;74445;55.252;61.092;2023-12-22T05:55:44;3.10;;;1.75;;
84286;SDS011;74445;55.252;61.092;2023-12-22T05:58:12;3.28;;;1.60;;
84286;SDS011;74445;55.252;61.092;2023-12-22T06:00:39;3.53;;;1.90;;
84286;SDS011;74445;55.252;61.092;2023-12-22T06:03:06;1.85;;;1.50;;
84286;SDS011;74445;55.252;61.092;2023-12-22T06:05:36;4.05;;;1.83;;
84286;SDS011;74445;55.252;61.092;2023-12-22T06:08:04;1.55;;;1.10;;
84286;SDS011;74445;55.252;61.092;2023-12-22T06:10:32;3.00;;;1.80;;
84286;SDS011;74445;55.252;61.092;2023-12-22T06:13:02;2.53;;;1.42;;
84286;SDS011;74445;55.252;61.092;2023-12-22T06:15:34;4.22;;;1.95;;
84286;SDS011;74445;55.252;61.092;2023-12-22T06:18:02;3.42;;;1.70;;
84286;SDS011;74445;55.252;61.092;2023-12-22T06:20:30;3.30;;;1.65;;
84286;SDS011;74445;55.252;61.092;2023-12-22T06:23:00;2.95;;;1.65;;
84286;SDS011;74445;55.252;61.092;2023-12-22T06:25:27;3.65;;;1.50;;
84286;SDS011;74445;55.252;61.092;2023-12-22T06:27:55;3.47;;;1.77;;
84286;SDS011;74445;55.252;61.092;2023-12-22T06:30:22;2.97;;;1.73;;
84286;SDS011;74445;55.252;61.092;2023-12-22T06:32:50;1.35;;;1.17;;
84286;SDS011;74445;55.252;61.092;2023-12-22T06:35:18;3.00;;;1.70;;
84286;SDS011;74445;55.252;61.092;2023-12-22T06:37:49;4.57;;;1.92;;
84286;SDS011;74445;55.252;61.092;2023-12-22T06:40:21;3.63;;;1.52;;
84286;SDS011;74445;55.252;61.092;2023-12-22T06:42:49;4.32;;;1.38;;
84286;SDS011;74445;55.252;61.092;2023-12-22T06:45:17;3.80;;;1.50;;
84286;SDS011;74445;55.252;61.092;2023-12-22T06:47:44;4.38;;;2.08;;
84286;SDS011;74445;55.252;61.092;2023-12-22T06:50:12;3.45;;;1.60;;
84286;SDS011;74445;55.252;61.092;2023-12-22T06:52:39;2.78;;;1.67;;
84286;SDS011;74445;55.252;61.092;2023-12-22T06:55:07;2.30;;;1.65;;
84286;SDS011;74445;55.252;61.092;2023-12-22T06:57:38;2.38;;;1.55;;
84286;SDS011;74445;55.252;61.092;2023-12-22T07:00:07;3.42;;;1.80;;
84286;SDS011;74445;55.252;61.092;2023-12-22T07:02:37;2.70;;;1.77;;
84286;SDS011;74445;55.252;61.092;2023-12-22T07:08:04;2.47;;;1.42;;
84286;SDS011;74445;55.252;61.092;2023-12-22T07:10:34;3.42;;;1.90;;
84286;SDS011;74445;55.252;61.092;2023-12-22T07:13:13;3.03;;;1.90;;
84286;SDS011;74445;55.252;61.092;2023-12-22T07:15:42;2.10;;;1.80;;
84286;SDS011;74445;55.252;61.092;2023-12-22T07:18:09;1.75;;;1.50;;
84286;SDS011;74445;55.252;61.092;2023-12-22T07:20:38;4.70;;;1.95;;
84286;SDS011;74445;55.252;61.092;2023-12-22T07:23:07;3.45;;;1.98;;
84286;SDS011;74445;55.252;61.092;2023-12-22T07:25:39;4.00;;;1.95;;
84286;SDS011;74445;55.252;61.092;2023-12-22T07:28:11;6.88;;;2.15;;
84286;SDS011;74445;55.252;61.092;2023-12-22T07:30:42;4.90;;;2.00;;
84286;SDS011;74445;55.252;61.092;2023-12-22T07:33:17;2.88;;;2.10;;
84286;SDS011;74445;55.252;61.092;2023-12-22T07:35:46;3.92;;;2.30;;
84286;SDS011;74445;55.252;61.092;2023-12-22T07:38:19;3.35;;;2.47;;
84286;SDS011;74445;55.252;61.092;2023-12-22T07:40:54;4.30;;;2.28;;
84286;SDS011;74445;55.252;61.092;2023-12-22T07:43:33;3.20;;;2.22;;
84286;SDS011;74445;55.252;61.092;2023-12-22T07:46:03;5.05;;;2.58;;
84286;SDS011;74445;55.252;61.092;2023-12-22T07:48:38;5.20;;;2.70;;
84286;SDS011;74445;55.252;61.092;2023-12-22T07:51:07;4.63;;;2.10;;
84286;SDS011;74445;55.252;61.092;2023-12-22T07:53:35;3.90;;;3.10;;
84286;SDS011;74445;55.252;61.092;2023-12-22T07:56:07;4.10;;;3.03;;
84286;SDS011;74445;55.252;61.092;2023-12-22T07:58:47;3.63;;;2.70;;
84286;SDS011;74445;55.252;61.092;2023-12-22T08:01:23;5.10;;;3.17;;
84286;SDS011;74445;55.252;61.092;2023-12-22T08:03:58;3.28;;;2.80;;
84286;SDS011;74445;55.252;61.092;2023-12-22T08:06:25;4.68;;;3.22;;
84286;SDS011;74445;55.252;61.092;2023-12-22T08:08:54;4.75;;;3.10;;
84286;SDS011;74445;55.252;61.092;2023-12-22T08:11:31;3.30;;;2.53;;
84286;SDS011;74445;55.252;61.092;2023-12-22T08:14:06;4.95;;;3.30;;
84286;SDS011;74445;55.252;61.092;2023-12-22T08:16:37;4.07;;;2.92;;
84286;SDS011;74445;55.252;61.092;2023-12-22T08:19:05;4.35;;;3.05;;
84286;SDS011;74445;55.252;61.092;2023-12-22T08:21:35;3.78;;;2.97;;
84286;SDS011;74445;55.252;61.092;2023-12-22T08:24:10;4.72;;;3.28;;
84286;SDS011;74445;55.252;61.092;2023-12-22T08:26:38;7.03;;;3.30;;
84286;SDS011;74445;55.252;61.092;2023-12-22T08:29:09;5.13;;;3.70;;
84286;SDS011;74445;55.252;61.092;2023-12-22T08:31:37;5.25;;;3.70;;
84286;SDS011;74445;55.252;61.092;2023-12-22T08:34:05;4.57;;;3.60;;
84286;SDS011;74445;55.252;61.092;2023-12-22T08:36:34;5.72;;;4.13;;
84286;SDS011;74445;55.252;61.092;2023-12-22T08:39:06;2.88;;;1.98;;
84286;SDS011;74445;55.252;61.092;2023-12-22T08:41:36;5.03;;;3.45;;
84286;SDS011;74445;55.252;61.092;2023-12-22T08:44:04;4.95;;;3.00;;
84286;SDS011;74445;55.252;61.092;2023-12-22T08:46:33;5.80;;;3.80;;
84286;SDS011;74445;55.252;61.092;2023-12-22T08:49:00;6.28;;;3.47;;
84286;SDS011;74445;55.252;61.092;2023-12-22T08:51:29;7.15;;;4.18;;
84286;SDS011;74445;55.252;61.092;2023-12-22T08:53:58;8.00;;;5.40;;
84286;SDS011;74445;55.252;61.092;2023-12-22T08:56:34;10.85;;;5.63;;
84286;SDS011;74445;55.252;61.092;2023-12-22T08:59:02;9.90;;;5.50;;
84286;SDS011;74445;55.252;61.092;2023-12-22T09:01:28;9.27;;;5.18;;
84286;SDS011;74445;55.252;61.092;2023-12-22T09:03:57;4.80;;;3.53;;
84286;SDS011;74445;55.252;61.092;2023-12-22T09:06:24;12.77;;;6.65;;
84286;SDS011;74445;55.252;61.092;2023-12-22T09:08:51;14.98;;;7.20;;
84286;SDS011;74445;55.252;61.092;2023-12-22T09:11:19;10.45;;;5.22;;
84286;SDS011;74445;55.252;61.092;2023-12-22T09:13:47;11.02;;;6.40;;
84286;SDS011;74445;55.252;61.092;2023-12-22T09:16:19;15.75;;;9.00;;
84286;SDS011;74445;55.252;61.092;2023-12-22T09:18:47;13.85;;;7.28;;
84286;SDS011;74445;55.252;61.092;2023-12-22T09:21:16;12.45;;;6.00;;
84286;SDS011;74445;55.252;61.092;2023-12-22T09:23:43;11.32;;;6.07;;
84286;SDS011;74445;55.252;61.092;2023-12-22T09:26:12;9.93;;;5.45;;
84286;SDS011;74445;55.252;61.092;2023-12-22T09:28:39;13.55;;;7.32;;
84286;SDS011;74445;55.252;61.092;2023-12-22T09:31:06;8.93;;;4.97;;
84286;SDS011;74445;55.252;61.092;2023-12-22T09:33:34;8.23;;;4.45;;
84286;SDS011;74445;55.252;61.092;2023-12-22T09:36:01;10.35;;;4.60;;
84286;SDS011;74445;55.252;61.092;2023-12-22T09:38:31;8.25;;;4.38;;
84286;SDS011;74445;55.252;61.092;2023-12-22T09:40:58;6.25;;;3.78;;
84286;SDS011;74445;55.252;61.092;2023-12-22T09:43:26;6.93;;;4.13;;
84286;SDS011;74445;55.252;61.092;2023-12-22T09:45:53;7.38;;;4.00;;
84286;SDS011;74445;55.252;61.092;2023-12-22T09:48:21;6.65;;;3.33;;
84286;SDS011;74445;55.252;61.092;2023-12-22T09:50:53;4.82;;;3.05;;
84286;SDS011;74445;55.252;61.092;2023-12-22T09:53:20;6.10;;;3.42;;
84286;SDS011;74445;55.252;61.092;2023-12-22T09:55:49;5.25;;;3.80;;
84286;SDS011;74445;55.252;61.092;2023-12-22T09:58:16;6.07;;;3.20;;
84286;SDS011;74445;55.252;61.092;2023-12-22T10:00:42;5.90;;;3.75;;
84286;SDS011;74445;55.252;61.092;2023-12-22T10:03:10;5.45;;;3.53;;
84286;SDS011;74445;55.252;61.092;2023-12-22T10:05:38;7.55;;;4.10;;
84286;SDS011;74445;55.252;61.092;2023-12-22T10:08:06;7.90;;;4.10;;
84286;SDS011;74445;55.252;61.092;2023-12-22T10:10:36;4.97;;;3.17;;
84286;SDS011;74445;55.252;61.092;2023-12-22T10:13:06;5.75;;;3.00;;
84286;SDS011;74445;55.252;61.092;2023-12-22T10:15:36;3.65;;;2.45;;
84286;SDS011;74445;55.252;61.092;2023-12-22T10:18:06;3.80;;;2.63;;
84286;SDS011;74445;55.252;61.092;2023-12-22T10:20:34;3.08;;;2.20;;
84286;SDS011;74445;55.252;61.092;2023-12-22T10:23:02;3.45;;;2.38;;
84286;SDS011;74445;55.252;61.092;2023-12-22T10:25:28;3.55;;;2.63;;
84286;SDS011;74445;55.252;61.092;2023-12-22T10:27:56;5.22;;;2.38;;
84286;SDS011;74445;55.252;61.092;2023-12-22T10:30:24;2.92;;;1.95;;
84286;SDS011;74445;55.252;61.092;2023-12-22T10:32:52;2.42;;;1.92;;
84286;SDS011;74445;55.252;61.092;2023-12-22T10:35:20;2.50;;;1.70;;
84286;SDS011;74445;55.252;61.092;2023-12-22T10:37:47;2.67;;;1.58;;
84286;SDS011;74445;55.252;61.092;2023-12-22T10:40:16;4.53;;;2.08;;
84286;SDS011;74445;55.252;61.092;2023-12-22T10:42:44;2.22;;;1.42;;
84286;SDS011;74445;55.252;61.092;2023-12-22T10:45:11;2.83;;;1.98;;
84286;SDS011;74445;55.252;61.092;2023-12-22T10:47:40;2.80;;;1.70;;
84286;SDS011;74445;55.252;61.092;2023-12-22T10:50:07;2.70;;;1.70;;
84286;SDS011;74445;55.252;61.092;2023-12-22T10:52:37;3.17;;;1.50;;
84286;SDS011;74445;55.252;61.092;2023-12-22T10:55:07;3.30;;;1.85;;
84286;SDS011;74445;55.252;61.092;2023-12-22T10:57:34;2.85;;;1.63;;
84286;SDS011;74445;55.252;61.092;2023-12-22T11:00:05;3.28;;;1.80;;
84286;SDS011;74445;55.252;61.092;2023-12-22T11:02:35;2.97;;;1.92;;
84286;SDS011;74445;55.252;61.092;2023-12-22T11:05:08;3.08;;;1.42;;
84286;SDS011;74445;55.252;61.092;2023-12-22T11:07:41;1.63;;;1.27;;
84286;SDS011;74445;55.252;61.092;2023-12-22T11:10:14;3.28;;;1.98;;
84286;SDS011;74445;55.252;61.092;2023-12-22T11:12:45;2.58;;;1.80;;
84286;SDS011;74445;55.252;61.092;2023-12-22T11:15:14;3.33;;;1.80;;
84286;SDS011;74445;55.252;61.092;2023-12-22T11:17:44;2.33;;;1.65;;
84286;SDS011;74445;55.252;61.092;2023-12-22T11:20:12;4.72;;;2.10;;
84286;SDS011;74445;55.252;61.092;2023-12-22T11:22:40;2.08;;;1.52;;
84286;SDS011;74445;55.252;61.092;2023-12-22T11:25:09;3.35;;;2.03;;
84286;SDS011;74445;55.252;61.092;2023-12-22T11:27:36;4.07;;;2.20;;
84286;SDS011;74445;55.252;61.092;2023-12-22T11:30:04;4.57;;;1.90;;
84286;SDS011;74445;55.252;61.092;2023-12-22T11:32:34;2.47;;;1.73;;
84286;SDS011;74445;55.252;61.092;2023-12-22T11:35:05;3.67;;;1.88;;
84286;SDS011;74445;55.252;61.092;2023-12-22T11:37:34;3.05;;;1.48;;
84286;SDS011;74445;55.252;61.092;2023-12-22T11:40:10;4.13;;;1.73;;
84286;SDS011;74445;55.252;61.092;2023-12-22T11:42:46;2.75;;;1.40;;
84286;SDS011;74445;55.252;61.092;2023-12-22T11:45:21;2.75;;;1.83;;
84286;SDS011;74445;55.252;61.092;2023-12-22T11:47:53;2.75;;;1.95;;
84286;SDS011;74445;55.252;61.092;2023-12-22T11:50:31;7.05;;;1.92;;
84286;SDS011;74445;55.252;61.092;2023-12-22T11:53:21;3.10;;;1.60;;
84286;SDS011;74445;55.252;61.092;2023-12-22T11:55:58;2.47;;;1.35;;
84286;SDS011;74445;55.252;61.092;2023-12-22T11:58:35;2.15;;;1.45;;
84286;SDS011;74445;55.252;61.092;2023-12-22T12:01:12;2.45;;;1.67;;
84286;SDS011;74445;55.252;61.092;2023-12-22T12:03:41;2.00;;;1.25;;
84286;SDS011;74445;55.252;61.092;2023-12-22T12:06:17;1.05;;;0.88;;
84286;SDS011;74445;55.252;61.092;2023-12-22T12:09:05;2.65;;;1.38;;
84286;SDS011;74445;55.252;61.092;2023-12-22T12:14:41;2.63;;;1.60;;
84286;SDS011;74445;55.252;61.092;2023-12-22T12:17:11;2.13;;;1.35;;
84286;SDS011;74445;55.252;61.092;2023-12-22T12:19:42;4.03;;;2.10;;
84286;SDS011;74445;55.252;61.092;2023-12-22T12:22:12;3.92;;;1.77;;
84286;SDS011;74445;55.252;61.092;2023-12-22T12:24:41;15.80;;;5.45;;
84286;SDS011;74445;55.252;61.092;2023-12-22T12:27:16;5.70;;;2.15;;
84286;SDS011;74445;55.252;61.092;2023-12-22T12:29:45;3.80;;;1.70;;
84286;SDS011;74445;55.252;61.092;2023-12-22T12:32:20;5.90;;;2.60;;
84286;SDS011;74445;55.252;61.092;2023-12-22T12:34:53;2.60;;;1.75;;
84286;SDS011;74445;55.252;61.092;2023-12-22T12:37:27;5.03;;;2.75;;
84286;SDS011;74445;55.252;61.092;2023-12-22T12:39:54;3.47;;;1.90;;
84286;SDS011;74445;55.252;61.092;2023-12-22T12:42:29;2.00;;;1.30;;
84286;SDS011;74445;55.252;61.092;2023-12-22T12:44:59;4.57;;;2.13;;
84286;SDS011;74445;55.252;61.092;2023-12-22T12:47:31;2.08;;;1.30;;
84286;SDS011;74445;55.252;61.092;2023-12-22T12:49:59;2.70;;;1.83;;
84286;SDS011;74445;55.252;61.092;2023-12-22T12:52:28;3.63;;;2.00;;
84286;SDS011;74445;55.252;61.092;2023-12-22T12:54:55;1.40;;;1.15;;
84286;SDS011;74445;55.252;61.092;2023-12-22T12:57:26;1.63;;;1.27;;
84286;SDS011;74445;55.252;61.092;2023-12-22T12:59:53;1.35;;;1.20;;
84286;SDS011;74445;55.252;61.092;2023-12-22T13:02:21;1.92;;;1.42;;
84286;SDS011;74445;55.252;61.092;2023-12-22T13:04:49;2.30;;;1.50;;
84286;SDS011;74445;55.252;61.092;2023-12-22T13:07:26;2.47;;;1.60;;
84286;SDS011;74445;55.252;61.092;2023-12-22T13:12:23;3.08;;;2.00;;
84286;SDS011;74445;55.252;61.092;2023-12-22T13:14:52;3.88;;;2.22;;
84286;SDS011;74445;55.252;61.092;2023-12-22T13:17:19;5.40;;;2.38;;
84286;SDS011;74445;55.252;61.092;2023-12-22T13:19:49;2.88;;;1.52;;
84286;SDS011;74445;55.252;61.092;2023-12-22T13:22:17;2.42;;;1.95;;
84286;SDS011;74445;55.252;61.092;2023-12-22T13:24:56;2.58;;;1.80;;
84286;SDS011;74445;55.252;61.092;2023-12-22T13:27:26;1.85;;;1.42;;
84286;SDS011;74445;55.252;61.092;2023-12-22T13:29:54;1.77;;;1.35;;
84286;SDS011;74445;55.252;61.092;2023-12-22T13:32:23;2.13;;;1.55;;
84286;SDS011;74445;55.252;61.092;2023-12-22T13:34:53;1.77;;;1.20;;
84286;SDS011;74445;55.252;61.092;2023-12-22T13:37:21;1.48;;;1.20;;
84286;SDS011;74445;55.252;61.092;2023-12-22T13:39:50;2.45;;;1.17;;
84286;SDS011;74445;55.252;61.092;2023-12-22T13:42:19;3.17;;;1.73;;
84286;SDS011;74445;55.252;61.092;2023-12-22T13:44:50;11.15;;;5.03;;
84286;SDS011;74445;55.252;61.092;2023-12-22T13:47:17;7.15;;;3.28;;
84286;SDS011;74445;55.252;61.092;2023-12-22T13:49:45;7.28;;;3.05;;
84286;SDS011;74445;55.252;61.092;2023-12-22T13:52:26;4.13;;;1.73;;
84286;SDS011;74445;55.252;61.092;2023-12-22T13:54:55;4.53;;;2.28;;
84286;SDS011;74445;55.252;61.092;2023-12-22T13:57:28;3.20;;;1.70;;
84286;SDS011;74445;55.252;61.092;2023-12-22T13:59:56;2.45;;;1.45;;
84286;SDS011;74445;55.252;61.092;2023-12-22T14:02:23;3.65;;;1.77;;
84286;SDS011;74445;55.252;61.092;2023-12-22T14:04:51;3.33;;;2.05;;
84286;SDS011;74445;55.252;61.092;2023-12-22T14:07:18;5.13;;;2.35;;
84286;SDS011;74445;55.252;61.092;2023-12-22T14:09:45;4.70;;;2.22;;
84286;SDS011;74445;55.252;61.092;2023-12-22T14:12:12;2.40;;;1.30;;
84286;SDS011;74445;55.252;61.092;2023-12-22T14:14:41;3.85;;;2.08;;
84286;SDS011;74445;55.252;61.092;2023-12-22T14:17:08;2.67;;;1.77;;
84286;SDS011;74445;55.252;61.092;2023-12-22T14:19:35;3.50;;;1.65;;
84286;SDS011;74445;55.252;61.092;2023-12-22T14:22:02;2.90;;;1.75;;
84286;SDS011;74445;55.252;61.092;2023-12-22T14:24:29;2.65;;;1.67;;
84286;SDS011;74445;55.252;61.092;2023-12-22T14:26:57;4.78;;;1.88;;
84286;SDS011;74445;55.252;61.092;2023-12-22T14:29:25;2.30;;;1.70;;
84286;SDS011;74445;55.252;61.092;2023-12-22T14:31:53;3.63;;;1.80;;
84286;SDS011;74445;55.252;61.092;2023-12-22T14:34:20;3.78;;;1.90;;
84286;SDS011;74445;55.252;61.092;2023-12-22T14:36:47;2.72;;;1.88;;
84286;SDS011;74445;55.252;61.092;2023-12-22T14:39:15;4.90;;;2.20;;
84286;SDS011;74445;55.252;61.092;2023-12-22T14:41:42;3.60;;;1.90;;
84286;SDS011;74445;55.252;61.092;2023-12-22T14:44:08;3.50;;;1.95;;
84286;SDS011;74445;55.252;61.092;2023-12-22T14:46:38;2.22;;;1.42;;
84286;SDS011;74445;55.252;61.092;2023-12-22T14:49:08;2.85;;;1.73;;
84286;SDS011;74445;55.252;61.092;2023-12-22T14:51:35;3.72;;;1.58;;